createdAt,value
2022-09-09T00:02:11.620Z,3.10
2022-09-09T00:12:17.306Z,3.50
2022-09-09T00:22:27.601Z,2.70
2022-09-09T00:32:35.245Z,2.70
2022-09-09T00:42:47.251Z,3.30
2022-09-09T00:52:59.145Z,3.70
2022-09-09T01:03:20.626Z,5.00
2022-09-09T01:13:32.103Z,5.40
2022-09-09T01:23:47.530Z,5.40
2022-09-09T01:33:54.720Z,7.00
2022-09-09T01:44:02.190Z,6.90
2022-09-09T01:54:10.244Z,7.10
2022-09-09T02:04:25.494Z,7.80
2022-09-09T02:14:38.791Z,8.80
2022-09-09T02:24:46.185Z,8.70
2022-09-09T02:34:58.751Z,7.50
2022-09-09T02:45:04.481Z,8.50
2022-09-09T02:55:13.651Z,8.70
2022-09-09T03:05:19.444Z,10.00
2022-09-09T03:15:30.577Z,14.40
2022-09-09T03:25:37.246Z,15.70
2022-09-09T03:35:50.109Z,16.10
2022-09-09T03:45:57.521Z,18.10
2022-09-09T03:56:03.362Z,17.40
2022-09-09T04:06:13.611Z,16.40
2022-09-09T04:16:21.335Z,16.10
2022-09-09T04:26:29.053Z,17.90
2022-09-09T04:36:33.597Z,16.50
2022-09-09T04:46:42.352Z,16.20
2022-09-09T04:56:49.623Z,15.00
2022-09-09T05:06:56.728Z,16.50
2022-09-09T05:17:03.758Z,19.00
2022-09-09T05:27:13.375Z,16.50
2022-09-09T05:37:20.024Z,16.60
2022-09-09T05:47:27.506Z,15.50
2022-09-09T05:57:35.328Z,14.70
2022-09-09T06:07:43.878Z,13.20
2022-09-09T06:17:55.996Z,11.80
2022-09-09T06:28:03.468Z,9.40
2022-09-09T06:38:11.009Z,8.30
2022-09-09T06:48:18.046Z,5.70
2022-09-09T06:58:25.040Z,4.90
2022-09-09T07:08:31.608Z,4.70
2022-09-09T07:18:39.384Z,3.30
2022-09-09T07:28:46.913Z,3.40
2022-09-09T07:38:56.840Z,2.20
2022-09-09T07:49:04.811Z,2.70
2022-09-09T07:59:13.189Z,2.10
2022-09-09T08:09:21.063Z,2.40
2022-09-09T08:19:30.440Z,2.30
2022-09-09T08:29:39.051Z,2.10
2022-09-09T08:39:46.127Z,1.60
2022-09-09T08:59:58.784Z,1.60
2022-09-09T09:10:09.103Z,1.30
2022-09-09T09:20:25.471Z,1.50
2022-09-09T09:30:31.215Z,1.50
2022-09-09T09:40:38.707Z,1.60
2022-09-09T09:50:49.016Z,0.90
2022-09-09T10:00:57.116Z,1.00
2022-09-09T10:11:08.302Z,0.90
2022-09-09T10:21:22.976Z,1.00
2022-09-09T10:31:36.379Z,1.10
2022-09-09T10:41:52.249Z,1.10
2022-09-09T10:51:57.999Z,1.10
2022-09-09T11:02:13.837Z,1.30
2022-09-09T11:12:23.239Z,1.50
2022-09-09T11:22:31.624Z,1.20
2022-09-09T11:33:09.975Z,1.30
2022-09-09T11:43:17.532Z,1.20
2022-09-09T11:53:24.033Z,1.40
2022-09-09T12:03:41.817Z,1.40
2022-09-09T12:13:54.951Z,2.30
2022-09-09T12:24:09.585Z,1.20
2022-09-09T12:34:17.430Z,1.20
2022-09-09T12:44:25.202Z,0.80
2022-09-09T12:54:32.411Z,1.20
2022-09-09T13:04:39.633Z,1.60
2022-09-09T13:25:04.726Z,1.50
2022-09-09T13:35:24.421Z,1.50
2022-09-09T13:45:31.932Z,1.50
2022-09-09T13:55:39.678Z,1.10
2022-09-09T14:05:48.146Z,1.50
2022-09-09T14:25:59.295Z,1.30
2022-09-09T14:36:04.674Z,1.60
2022-09-09T14:46:13.712Z,1.20
2022-09-09T14:56:22.461Z,1.30
2022-09-09T15:06:32.858Z,1.20
2022-09-09T15:16:41.594Z,1.10
2022-09-09T15:26:48.681Z,1.30
2022-09-09T15:36:55.402Z,1.10
2022-09-09T15:47:02.381Z,1.50
2022-09-09T15:57:10.525Z,1.50
2022-09-09T16:07:17.495Z,1.50
2022-09-09T16:17:24.016Z,1.60
2022-09-09T16:27:31.650Z,2.50
2022-09-09T16:37:37.461Z,2.30
2022-09-09T16:47:45.345Z,2.90
2022-09-09T16:57:52.862Z,8.20
2022-09-09T17:07:58.680Z,3.90
2022-09-09T17:18:06.347Z,3.20
2022-09-09T17:28:13.820Z,3.50
2022-09-09T17:38:20.105Z,3.60
2022-09-09T17:48:28.530Z,4.90
2022-09-09T18:08:41.631Z,6.90
2022-09-09T18:18:49.826Z,6.40
2022-09-09T18:28:59.617Z,6.50
2022-09-09T18:39:08.948Z,6.70
2022-09-09T18:49:17.084Z,6.50
2022-09-09T18:59:25.765Z,8.90
2022-09-09T19:09:34.324Z,7.40
2022-09-09T19:19:41.254Z,8.80
2022-09-09T19:29:48.552Z,9.90
2022-09-09T19:39:55.944Z,11.60
2022-09-09T19:50:05.926Z,13.80
2022-09-09T20:00:15.054Z,18.10
2022-09-09T20:10:23.667Z,17.60
2022-09-09T20:20:30.670Z,18.30
2022-09-09T20:30:37.365Z,16.30
2022-09-09T20:40:44.453Z,21.00
2022-09-09T20:50:51.602Z,18.40
2022-09-09T21:01:00.566Z,18.60
2022-09-09T21:11:07.179Z,16.50
2022-09-09T21:21:15.392Z,15.60
2022-09-09T21:31:27.469Z,14.20
2022-09-09T21:41:36.709Z,12.40
2022-09-09T21:51:43.946Z,12.70
2022-09-09T22:01:51.526Z,13.20
2022-09-09T22:11:58.274Z,12.80
2022-09-09T22:22:05.262Z,12.70
2022-09-09T22:32:12.857Z,12.10
2022-09-09T22:42:20.143Z,11.70
2022-09-09T22:52:27.520Z,9.70
2022-09-09T23:02:38.707Z,10.00
2022-09-09T23:12:49.489Z,11.00
2022-09-09T23:33:01.859Z,11.90
2022-09-09T23:43:08.918Z,12.50
2022-09-09T23:53:16.136Z,13.40
